Key Biscayne, FL (33149)

1:05 PM EDT on May 06, 2015 (GMT -0400)
Coconut Grove | | Change Station
CLOSE
Current Station
Personal Weather Station
Location: Miami, FL
Elevation: 59 ft
Nearby Weather Stations

Elev 59 ft 25.74 °N, 80.22 °W | Updated 17 minutes ago

Mostly Cloudy
Mostly Cloudy
78.3 °F
Feels Like 80 °F
N
2.7
Wind Variable Wind from West

Today
High -- | Low -- °F
--% Chance of Precip.
Yesterday
High -- | Low -- °F
Precip. -- in
6:40 AM 7:54 PM
Waning Gibbous, 93% visible
Pressure 30.04 in
Visibility 10.0 miles
Clouds Few 2700 ft
Mostly Cloudy 5500 ft
Mostly Cloudy 7500 ft
Heat Index 80 °F
Dew Point 68 °F
Humidity 71%
Rainfall 0.00 in
Snow Depth Not available.
UV 8 out of 12
Pollen 2.90 out of 12
Air Quality Not available.
Flu Activity Local Activity
METAR KMIA 061653Z 34008KT 280V010 10SM FEW027 BKN055 BKN075 28/18 A3004 RMK AO2 SLP173 T02780178

More Conditions Fewer Conditions

Pressure 30.04 in
Visibility 10.0 miles
Clouds Few 2700 ft
Mostly Cloudy 5500 ft
Mostly Cloudy 7500 ft
Heat Index 80 °F
Dew Point 68 °F
Humidity 71%
Rainfall 0.00 in
Snow Depth Not available.
UV 8 out of 12
Pollen 2.90 out of 12
Air Quality Not available.
Flu Activity Local Activity
METAR KMIA 061653Z 34008KT 280V010 10SM FEW027 BKN055 BKN075 28/18 A3004 RMK AO2 SLP173 T02780178

More Conditions Fewer Conditions

10-Day Weather Forecast

Almanac

Astronomy

May. 06, 2015 Rise Set
Actual Time
Civil Twilight
Nautical Twilight
Astronomical Twilight
Moon
Length of Visible Light
Length of Day
Tomorrow will be .
, % of the Moon is Illuminated

Today's Extremes

State Highs State Lows

Community

WunderPhotos

Upload Photos

1,818,954 photos uploaded!

WunderBlogs® & News

Nearby

Air Quality

  Air Quality AQ Index Pollutant
Not available.

Snow Depth

Station Depth Elevation

Earthquake Activity

City Distance Mag. Time & Date
Minimum magnitude displayed is 2.5.

Coastal Water Temperatures

Place Temperature

Stations

Nearby Weather Stations

Station Location Temp. Windchill Dew Point Humidity Wind Precip. Elev Updated Type